createdAt,value
2019-03-13T00:03:10.528Z,40.03
2019-03-13T00:08:17.513Z,41.16
2019-03-13T00:13:26.125Z,39.79
2019-03-13T00:18:33.121Z,40.04
2019-03-13T00:23:40.282Z,39.65
2019-03-13T00:28:47.349Z,38.14
2019-03-13T00:33:54.546Z,38.38
2019-03-13T00:39:01.535Z,37.92
2019-03-13T00:44:11.365Z,38.83
2019-03-13T00:49:18.376Z,41.31
2019-03-13T00:54:25.365Z,45.15
2019-03-13T00:59:32.336Z,47.60
2019-03-13T01:04:46.837Z,48.91
2019-03-13T01:09:53.826Z,51.03
2019-03-13T01:15:00.726Z,51.98
2019-03-13T01:20:08.159Z,52.38
2019-03-13T01:25:15.073Z,54.04
2019-03-13T01:30:21.979Z,56.06
2019-03-13T01:35:33.016Z,56.20
2019-03-13T01:40:40.206Z,56.57
2019-03-13T01:45:47.545Z,58.21
2019-03-13T01:50:54.467Z,58.05
2019-03-13T01:56:01.389Z,58.88
2019-03-13T02:01:08.445Z,59.10
2019-03-13T02:06:15.430Z,58.94
2019-03-13T02:11:23.375Z,59.57
2019-03-13T02:16:31.529Z,59.47
2019-03-13T02:21:38.459Z,59.69
2019-03-13T02:26:45.369Z,59.38
2019-03-13T02:31:52.571Z,59.98
2019-03-13T02:36:59.625Z,61.07
2019-03-13T02:42:06.770Z,61.27
2019-03-13T02:47:18.630Z,60.30
2019-03-13T02:52:23.847Z,60.61
2019-03-13T02:57:30.723Z,62.62
2019-03-13T03:02:42.438Z,62.79
2019-03-13T03:07:49.352Z,66.10
2019-03-13T03:12:57.802Z,69.07
2019-03-13T03:18:06.078Z,69.22
2019-03-13T03:23:13.011Z,70.12
2019-03-13T03:28:19.981Z,69.15
2019-03-13T03:33:27.156Z,68.63
2019-03-13T03:38:34.153Z,68.08
2019-03-13T03:43:41.430Z,68.29
2019-03-13T03:48:48.636Z,68.91
2019-03-13T03:53:55.612Z,68.41
2019-03-13T03:59:02.510Z,66.99
2019-03-13T04:04:09.632Z,65.40
2019-03-13T04:09:16.538Z,63.46
2019-03-13T04:14:23.724Z,62.27
2019-03-13T04:19:31.707Z,61.41
2019-03-13T04:24:38.691Z,62.60
2019-03-13T04:29:45.694Z,63.35
2019-03-13T04:34:52.622Z,63.11
2019-03-13T04:39:59.548Z,63.11
2019-03-13T04:45:06.740Z,64.16
2019-03-13T04:50:13.987Z,64.37
2019-03-13T04:55:20.975Z,64.08
2019-03-13T05:00:27.950Z,63.49
2019-03-13T05:05:45.434Z,63.25
2019-03-13T05:10:52.421Z,63.39
2019-03-13T05:15:59.330Z,63.80
2019-03-13T05:21:06.560Z,63.00
2019-03-13T05:26:13.547Z,62.62
2019-03-13T05:31:20.481Z,62.71
2019-03-13T05:36:27.390Z,63.77
2019-03-13T05:41:34.430Z,64.07
2019-03-13T05:46:41.354Z,64.70
2019-03-13T05:51:48.288Z,65.31
2019-03-13T05:56:55.899Z,64.99
2019-03-13T06:02:02.811Z,64.10
2019-03-13T06:07:09.802Z,63.48
2019-03-13T06:12:16.729Z,63.82
2019-03-13T06:17:23.895Z,63.30
2019-03-13T06:22:30.873Z,61.53
2019-03-13T06:27:37.851Z,62.42
2019-03-13T06:32:44.761Z,59.83
2019-03-13T06:37:51.778Z,59.64
2019-03-13T06:42:58.749Z,59.27
2019-03-13T06:48:05.805Z,58.37
2019-03-13T06:53:12.906Z,58.09
2019-03-13T06:58:27.963Z,57.49
2019-03-13T07:03:43.723Z,57.05
2019-03-13T07:08:58.577Z,56.34
2019-03-13T07:14:23.097Z,55.16
2019-03-13T07:19:51.925Z,54.22
2019-03-13T07:25:18.123Z,54.47
2019-03-13T07:31:03.535Z,55.05
2019-03-13T07:36:36.534Z,54.66
2019-03-13T07:42:18.739Z,53.61
2019-03-13T07:47:42.762Z,53.83
2019-03-13T07:53:03.358Z,53.31
2019-03-13T07:58:44.493Z,51.91
2019-03-13T08:04:25.558Z,50.60
2019-03-13T08:09:51.511Z,51.64
2019-03-13T08:15:17.442Z,51.91
2019-03-13T08:20:49.356Z,51.94
2019-03-13T08:26:03.674Z,50.76
2019-03-13T08:31:19.370Z,50.40
2019-03-13T08:36:34.394Z,49.39
2019-03-13T08:41:59.295Z,49.59
2019-03-13T08:47:13.123Z,49.58
2019-03-13T08:52:54.534Z,48.43
2019-03-13T08:58:12.172Z,49.08
2019-03-13T09:03:26.540Z,48.03
2019-03-13T09:08:57.207Z,46.34
2019-03-13T09:14:22.412Z,46.36
2019-03-13T09:19:55.390Z,45.96
2019-03-13T09:25:24.426Z,45.97
2019-03-13T09:30:54.154Z,46.62
2019-03-13T09:36:12.751Z,46.17
2019-03-13T09:41:42.320Z,47.19
2019-03-13T09:47:20.407Z,46.06
2019-03-13T09:52:37.419Z,45.00
2019-03-13T09:58:03.455Z,45.46
2019-03-13T10:03:35.662Z,45.88
2019-03-13T10:09:00.081Z,45.20
2019-03-13T10:14:12.054Z,43.80
2019-03-13T10:19:36.999Z,46.25
2019-03-13T10:25:01.566Z,44.83
2019-03-13T10:30:29.143Z,45.06
2019-03-13T10:35:52.755Z,45.22
2019-03-13T10:41:11.730Z,44.84
2019-03-13T10:46:36.701Z,44.81
2019-03-13T10:51:55.207Z,44.35
2019-03-13T10:57:15.062Z,44.89
2019-03-13T11:02:30.685Z,44.32
2019-03-13T11:07:55.957Z,43.46
2019-03-13T11:13:10.693Z,44.22
2019-03-13T11:18:33.160Z,41.90
2019-03-13T11:23:49.073Z,42.51
2019-03-13T11:29:20.624Z,43.49
2019-03-13T11:34:34.595Z,43.86
2019-03-13T11:40:04.934Z,43.75
2019-03-13T11:45:22.567Z,43.51
2019-03-13T11:50:47.660Z,42.03
2019-03-13T11:56:12.240Z,42.33
2019-03-13T12:01:45.581Z,42.49
2019-03-13T12:07:03.723Z,42.39
2019-03-13T12:12:28.323Z,43.04
2019-03-13T12:17:51.996Z,43.32
2019-03-13T12:23:09.003Z,42.63
2019-03-13T12:28:24.203Z,42.47
2019-03-13T12:33:50.205Z,42.51
2019-03-13T12:39:16.352Z,42.48
2019-03-13T12:44:29.022Z,43.21
2019-03-13T12:49:47.508Z,42.34
2019-03-13T12:55:07.378Z,43.45
2019-03-13T13:00:25.221Z,43.57
2019-03-13T13:05:52.499Z,43.65
2019-03-13T13:11:14.026Z,45.32
2019-03-13T13:16:29.310Z,44.83
2019-03-13T13:21:36.235Z,44.67
2019-03-13T13:26:44.326Z,45.18
2019-03-13T13:31:51.332Z,44.96
2019-03-13T13:36:58.330Z,44.95
2019-03-13T13:42:06.554Z,44.67
2019-03-13T13:47:13.559Z,46.13
2019-03-13T13:52:20.577Z,46.07
2019-03-13T13:57:27.480Z,45.45
2019-03-13T14:02:34.402Z,44.24
2019-03-13T14:07:41.501Z,44.85
2019-03-13T14:12:48.679Z,44.55
2019-03-13T14:17:55.663Z,46.00
2019-03-13T14:23:02.648Z,46.26
2019-03-13T14:28:09.630Z,45.27
2019-03-13T14:33:17.615Z,44.50
2019-03-13T14:38:24.988Z,43.46
2019-03-13T14:43:31.968Z,45.00
2019-03-13T14:48:38.972Z,45.07
2019-03-13T14:53:46.151Z,45.62
2019-03-13T14:58:53.173Z,44.58
2019-03-13T15:04:00.097Z,45.00
2019-03-13T15:09:07.033Z,44.85
2019-03-13T15:14:14.532Z,45.52
2019-03-13T15:19:21.449Z,45.97
2019-03-13T15:24:28.595Z,45.98
2019-03-13T15:29:35.512Z,46.22
2019-03-13T15:34:42.492Z,45.41
2019-03-13T15:39:49.407Z,45.75
2019-03-13T15:44:56.404Z,46.94
2019-03-13T15:50:03.443Z,46.42
2019-03-13T15:55:11.442Z,46.27
2019-03-13T16:00:20.473Z,46.58
2019-03-13T16:05:27.541Z,47.15
2019-03-13T16:10:34.630Z,47.61
2019-03-13T16:15:42.108Z,46.73
2019-03-13T16:20:49.114Z,47.34
2019-03-13T16:25:56.419Z,47.94
2019-03-13T16:31:03.347Z,48.02
2019-03-13T16:36:10.386Z,47.46
2019-03-13T16:41:17.467Z,47.69
2019-03-13T16:46:24.385Z,48.59
2019-03-13T16:51:31.308Z,48.56
2019-03-13T16:56:38.238Z,48.63
2019-03-13T17:01:45.159Z,50.37
2019-03-13T17:06:52.083Z,50.71
2019-03-13T17:11:59.073Z,51.77
2019-03-13T17:17:06.060Z,51.99
2019-03-13T17:22:13.055Z,51.18
2019-03-13T17:27:20.027Z,52.46
2019-03-13T17:32:27.123Z,52.01
2019-03-13T17:37:34.057Z,52.36
2019-03-13T17:42:41.171Z,52.86
2019-03-13T17:47:48.190Z,52.82
2019-03-13T17:52:55.457Z,52.77
2019-03-13T17:58:02.348Z,52.87
2019-03-13T18:03:09.799Z,52.84
2019-03-13T18:08:16.865Z,53.13
2019-03-13T18:13:23.911Z,53.81
2019-03-13T18:18:30.906Z,53.61
2019-03-13T18:23:37.822Z,53.04
2019-03-13T18:28:44.730Z,53.94
2019-03-13T18:33:51.666Z,54.64
2019-03-13T18:38:59.674Z,54.92
2019-03-13T18:44:06.706Z,55.77
2019-03-13T18:49:13.698Z,57.01
2019-03-13T18:54:20.643Z,58.45
2019-03-13T18:59:27.650Z,60.30
2019-03-13T19:04:34.577Z,61.68
2019-03-13T19:09:41.636Z,61.57
2019-03-13T19:14:48.635Z,62.16
2019-03-13T19:19:55.627Z,62.02
2019-03-13T19:25:02.556Z,62.23
2019-03-13T19:30:20.519Z,62.41
2019-03-13T19:35:27.708Z,62.94
2019-03-13T19:40:34.770Z,62.54
2019-03-13T19:45:42.047Z,62.82
2019-03-13T19:50:49.215Z,63.56
2019-03-13T19:55:56.210Z,63.64
2019-03-13T20:01:03.667Z,64.14
2019-03-13T20:06:10.896Z,64.49
2019-03-13T20:11:18.843Z,64.34
2019-03-13T20:16:25.921Z,64.57
2019-03-13T20:21:34.466Z,63.92
2019-03-13T20:26:41.413Z,64.39
2019-03-13T20:31:48.657Z,64.41
2019-03-13T20:36:58.557Z,65.09
2019-03-13T20:42:04.569Z,65.19
2019-03-13T20:47:11.500Z,65.35
2019-03-13T20:52:18.585Z,65.81
2019-03-13T20:57:25.502Z,66.19
2019-03-13T21:02:32.427Z,65.70
2019-03-13T21:07:39.337Z,65.37
2019-03-13T21:12:47.455Z,66.00
2019-03-13T21:17:54.562Z,65.75
2019-03-13T21:23:01.583Z,66.88
2019-03-13T21:28:08.563Z,67.32
2019-03-13T21:33:15.630Z,67.00
2019-03-13T21:38:22.619Z,67.37
2019-03-13T21:43:30.753Z,67.07
2019-03-13T21:48:37.672Z,67.30
2019-03-13T21:53:44.684Z,67.88
2019-03-13T21:58:51.602Z,67.86
2019-03-13T22:03:58.570Z,68.06
2019-03-13T22:09:06.435Z,68.18
2019-03-13T22:14:13.931Z,67.83
2019-03-13T22:19:20.847Z,67.81
2019-03-13T22:24:28.422Z,66.97
2019-03-13T22:29:35.417Z,66.66
2019-03-13T22:34:42.486Z,66.17
2019-03-13T22:39:49.439Z,66.42
2019-03-13T22:44:57.653Z,66.79
2019-03-13T22:50:05.093Z,66.91
2019-03-13T22:55:12.237Z,66.62
2019-03-13T23:00:55.545Z,66.65
2019-03-13T23:06:04.200Z,66.68
2019-03-13T23:11:11.542Z,66.74
2019-03-13T23:16:18.517Z,66.62
2019-03-13T23:21:25.595Z,66.59
2019-03-13T23:26:32.594Z,66.60
2019-03-13T23:31:39.489Z,66.45
2019-03-13T23:36:46.632Z,66.75
2019-03-13T23:41:53.613Z,66.78
2019-03-13T23:47:00.515Z,66.62
2019-03-13T23:52:07.534Z,66.99
2019-03-13T23:57:14.509Z,67.09
